sensor_id;sensor_type;location;lat;lon;timestamp;temperature;humidity
68480;DHT22;55469;48.934;12.050;2023-02-12T00:00:44;1.20;94.90
68480;DHT22;55469;48.934;12.050;2023-02-12T00:03:10;1.20;94.90
68480;DHT22;55469;48.934;12.050;2023-02-12T00:05:39;1.30;94.90
68480;DHT22;55469;48.934;12.050;2023-02-12T00:08:09;1.30;94.90
68480;DHT22;55469;48.934;12.050;2023-02-12T00:10:39;1.30;94.90
68480;DHT22;55469;48.934;12.050;2023-02-12T00:13:07;1.20;94.90
68480;DHT22;55469;48.934;12.050;2023-02-12T00:15:38;1.30;94.90
68480;DHT22;55469;48.934;12.050;2023-02-12T00:18:04;1.30;95.00
68480;DHT22;55469;48.934;12.050;2023-02-12T00:20:30;1.30;94.90
68480;DHT22;55469;48.934;12.050;2023-02-12T00:22:55;1.30;95.00
68480;DHT22;55469;48.934;12.050;2023-02-12T00:25:21;1.30;95.00
68480;DHT22;55469;48.934;12.050;2023-02-12T00:27:47;1.30;95.00
68480;DHT22;55469;48.934;12.050;2023-02-12T00:30:13;1.30;95.00
68480;DHT22;55469;48.934;12.050;2023-02-12T00:32:38;1.30;95.00
68480;DHT22;55469;48.934;12.050;2023-02-12T00:35:05;1.30;95.00
68480;DHT22;55469;48.934;12.050;2023-02-12T00:37:31;1.30;95.00
68480;DHT22;55469;48.934;12.050;2023-02-12T00:39:57;1.30;94.90
68480;DHT22;55469;48.934;12.050;2023-02-12T00:42:23;1.30;95.00
68480;DHT22;55469;48.934;12.050;2023-02-12T00:44:48;1.30;95.00
68480;DHT22;55469;48.934;12.050;2023-02-12T00:47:14;1.30;95.00
68480;DHT22;55469;48.934;12.050;2023-02-12T00:49:41;1.30;95.00
68480;DHT22;55469;48.934;12.050;2023-02-12T00:52:07;1.30;95.00
68480;DHT22;55469;48.934;12.050;2023-02-12T00:54:33;1.30;95.00
68480;DHT22;55469;48.934;12.050;2023-02-12T00:56:59;1.30;95.00
68480;DHT22;55469;48.934;12.050;2023-02-12T00:59:25;1.30;95.00
68480;DHT22;55469;48.934;12.050;2023-02-12T01:01:52;1.30;95.10
68480;DHT22;55469;48.934;12.050;2023-02-12T01:04:19;1.30;95.50
68480;DHT22;55469;48.934;12.050;2023-02-12T01:06:45;1.30;95.00
68480;DHT22;55469;48.934;12.050;2023-02-12T01:09:11;1.40;95.10
68480;DHT22;55469;48.934;12.050;2023-02-12T01:11:38;1.30;95.00
68480;DHT22;55469;48.934;12.050;2023-02-12T01:14:04;1.30;95.10
68480;DHT22;55469;48.934;12.050;2023-02-12T01:16:30;1.40;95.00
68480;DHT22;55469;48.934;12.050;2023-02-12T01:19:00;1.40;95.10
68480;DHT22;55469;48.934;12.050;2023-02-12T01:21:28;1.30;95.10
68480;DHT22;55469;48.934;12.050;2023-02-12T01:24:00;1.40;95.10
68480;DHT22;55469;48.934;12.050;2023-02-12T01:26:27;1.40;95.10
68480;DHT22;55469;48.934;12.050;2023-02-12T01:28:56;1.40;95.10
68480;DHT22;55469;48.934;12.050;2023-02-12T01:31:25;1.40;95.10
68480;DHT22;55469;48.934;12.050;2023-02-12T01:33:55;1.40;95.10
68480;DHT22;55469;48.934;12.050;2023-02-12T01:36:21;1.40;95.10
68480;DHT22;55469;48.934;12.050;2023-02-12T01:38:48;1.40;95.20
68480;DHT22;55469;48.934;12.050;2023-02-12T01:41:17;1.40;95.10
68480;DHT22;55469;48.934;12.050;2023-02-12T01:46:37;1.40;95.10
68480;DHT22;55469;48.934;12.050;2023-02-12T01:49:06;1.40;95.10
68480;DHT22;55469;48.934;12.050;2023-02-12T01:51:35;1.40;95.20
68480;DHT22;55469;48.934;12.050;2023-02-12T01:54:04;1.40;95.20
68480;DHT22;55469;48.934;12.050;2023-02-12T01:56:32;1.40;95.20
68480;DHT22;55469;48.934;12.050;2023-02-12T01:58:58;1.40;95.20
68480;DHT22;55469;48.934;12.050;2023-02-12T02:01:27;1.40;95.20
68480;DHT22;55469;48.934;12.050;2023-02-12T02:04:00;1.40;95.20
68480;DHT22;55469;48.934;12.050;2023-02-12T02:06:31;1.40;95.70
68480;DHT22;55469;48.934;12.050;2023-02-12T02:09:01;1.40;95.30
68480;DHT22;55469;48.934;12.050;2023-02-12T02:11:27;1.40;95.20
68480;DHT22;55469;48.934;12.050;2023-02-12T02:14:11;1.40;95.20
68480;DHT22;55469;48.934;12.050;2023-02-12T02:32:22;1.40;95.30
68480;DHT22;55469;48.934;12.050;2023-02-12T02:34:57;1.40;95.30
68480;DHT22;55469;48.934;12.050;2023-02-12T02:37:35;1.40;95.30
68480;DHT22;55469;48.934;12.050;2023-02-12T02:40:18;1.40;95.40
68480;DHT22;55469;48.934;12.050;2023-02-12T02:46:45;1.40;95.40
68480;DHT22;55469;48.934;12.050;2023-02-12T02:49:30;1.40;95.40
68480;DHT22;55469;48.934;12.050;2023-02-12T02:52:04;1.40;95.40
68480;DHT22;55469;48.934;12.050;2023-02-12T02:54:57;1.40;95.40
68480;DHT22;55469;48.934;12.050;2023-02-12T02:57:49;1.50;95.40
68480;DHT22;55469;48.934;12.050;2023-02-12T03:03:52;1.50;95.40
68480;DHT22;55469;48.934;12.050;2023-02-12T03:06:39;1.40;95.40
68480;DHT22;55469;48.934;12.050;2023-02-12T03:11:48;1.50;95.40
68480;DHT22;55469;48.934;12.050;2023-02-12T03:14:48;1.50;95.40
68480;DHT22;55469;48.934;12.050;2023-02-12T03:17:20;1.50;95.40
68480;DHT22;55469;48.934;12.050;2023-02-12T03:19:58;1.50;95.40
68480;DHT22;55469;48.934;12.050;2023-02-12T03:22:30;1.50;95.40
68480;DHT22;55469;48.934;12.050;2023-02-12T03:25:08;1.50;95.40
68480;DHT22;55469;48.934;12.050;2023-02-12T03:27:43;1.50;95.40
68480;DHT22;55469;48.934;12.050;2023-02-12T03:30:12;1.50;95.40
68480;DHT22;55469;48.934;12.050;2023-02-12T03:32:51;1.50;95.40
68480;DHT22;55469;48.934;12.050;2023-02-12T03:35:24;1.50;95.40
68480;DHT22;55469;48.934;12.050;2023-02-12T03:38:18;1.50;95.40
68480;DHT22;55469;48.934;12.050;2023-02-12T03:40:59;1.50;95.50
68480;DHT22;55469;48.934;12.050;2023-02-12T03:46:49;1.50;95.40
68480;DHT22;55469;48.934;12.050;2023-02-12T03:49:31;1.50;95.50
68480;DHT22;55469;48.934;12.050;2023-02-12T03:52:02;1.50;95.50
68480;DHT22;55469;48.934;12.050;2023-02-12T03:54:28;1.50;95.50
68480;DHT22;55469;48.934;12.050;2023-02-12T03:57:02;1.50;95.40
68480;DHT22;55469;48.934;12.050;2023-02-12T03:59:34;1.50;95.50
68480;DHT22;55469;48.934;12.050;2023-02-12T04:02:03;1.50;95.50
68480;DHT22;55469;48.934;12.050;2023-02-12T04:04:29;1.50;95.50
68480;DHT22;55469;48.934;12.050;2023-02-12T04:06:55;1.50;95.50
68480;DHT22;55469;48.934;12.050;2023-02-12T04:09:23;1.50;95.50
68480;DHT22;55469;48.934;12.050;2023-02-12T04:12:29;1.50;95.40
68480;DHT22;55469;48.934;12.050;2023-02-12T04:29:01;1.60;95.60
68480;DHT22;55469;48.934;12.050;2023-02-12T04:34:41;1.50;95.50
68480;DHT22;55469;48.934;12.050;2023-02-12T04:37:16;1.60;95.60
68480;DHT22;55469;48.934;12.050;2023-02-12T04:39:44;1.50;95.50
68480;DHT22;55469;48.934;12.050;2023-02-12T04:42:10;1.60;95.50
68480;DHT22;55469;48.934;12.050;2023-02-12T04:44:39;1.50;95.50
68480;DHT22;55469;48.934;12.050;2023-02-12T04:47:07;1.50;95.60
68480;DHT22;55469;48.934;12.050;2023-02-12T04:49:33;1.60;95.50
68480;DHT22;55469;48.934;12.050;2023-02-12T04:51:59;1.60;95.60
68480;DHT22;55469;48.934;12.050;2023-02-12T04:54:25;1.50;95.50
68480;DHT22;55469;48.934;12.050;2023-02-12T04:56:50;1.60;95.60
68480;DHT22;55469;48.934;12.050;2023-02-12T04:59:16;1.50;95.60
68480;DHT22;55469;48.934;12.050;2023-02-12T05:01:43;1.60;95.60
68480;DHT22;55469;48.934;12.050;2023-02-12T05:04:12;1.60;95.60
68480;DHT22;55469;48.934;12.050;2023-02-12T05:06:39;1.60;95.60
68480;DHT22;55469;48.934;12.050;2023-02-12T05:09:07;1.60;95.60
68480;DHT22;55469;48.934;12.050;2023-02-12T05:11:35;1.60;95.60
68480;DHT22;55469;48.934;12.050;2023-02-12T05:14:00;1.60;96.00
68480;DHT22;55469;48.934;12.050;2023-02-12T05:16:26;1.60;95.50
68480;DHT22;55469;48.934;12.050;2023-02-12T05:18:52;1.60;95.50
68480;DHT22;55469;48.934;12.050;2023-02-12T05:21:18;1.60;95.60
68480;DHT22;55469;48.934;12.050;2023-02-12T05:23:43;1.60;95.60
68480;DHT22;55469;48.934;12.050;2023-02-12T05:26:15;1.60;95.60
68480;DHT22;55469;48.934;12.050;2023-02-12T05:28:42;1.60;95.60
68480;DHT22;55469;48.934;12.050;2023-02-12T05:31:10;1.60;95.60
68480;DHT22;55469;48.934;12.050;2023-02-12T05:33:41;1.60;95.60
68480;DHT22;55469;48.934;12.050;2023-02-12T05:36:11;1.60;95.60
68480;DHT22;55469;48.934;12.050;2023-02-12T05:38:38;1.60;95.60
68480;DHT22;55469;48.934;12.050;2023-02-12T05:41:05;1.60;95.60
68480;DHT22;55469;48.934;12.050;2023-02-12T05:43:33;1.60;95.60
68480;DHT22;55469;48.934;12.050;2023-02-12T05:45:59;1.60;95.60
68480;DHT22;55469;48.934;12.050;2023-02-12T05:48:27;1.60;95.70
68480;DHT22;55469;48.934;12.050;2023-02-12T05:51:01;1.60;95.60
68480;DHT22;55469;48.934;12.050;2023-02-12T05:53:38;1.60;95.60
68480;DHT22;55469;48.934;12.050;2023-02-12T05:56:16;1.60;95.60
68480;DHT22;55469;48.934;12.050;2023-02-12T05:58:45;1.60;95.60
68480;DHT22;55469;48.934;12.050;2023-02-12T06:01:22;1.60;95.60
68480;DHT22;55469;48.934;12.050;2023-02-12T06:03:53;1.60;95.60
68480;DHT22;55469;48.934;12.050;2023-02-12T06:06:20;1.60;95.60
68480;DHT22;55469;48.934;12.050;2023-02-12T06:08:49;1.60;95.60
68480;DHT22;55469;48.934;12.050;2023-02-12T06:11:15;1.60;95.60
68480;DHT22;55469;48.934;12.050;2023-02-12T06:13:42;1.60;95.60
68480;DHT22;55469;48.934;12.050;2023-02-12T06:16:25;1.60;95.60
68480;DHT22;55469;48.934;12.050;2023-02-12T06:18:52;1.60;95.50
68480;DHT22;55469;48.934;12.050;2023-02-12T06:21:21;1.60;95.60
68480;DHT22;55469;48.934;12.050;2023-02-12T06:23:48;1.70;95.60
68480;DHT22;55469;48.934;12.050;2023-02-12T06:26:15;1.60;95.60
68480;DHT22;55469;48.934;12.050;2023-02-12T06:28:41;1.60;95.60
68480;DHT22;55469;48.934;12.050;2023-02-12T06:31:26;1.60;95.60
68480;DHT22;55469;48.934;12.050;2023-02-12T06:33:53;1.60;95.70
68480;DHT22;55469;48.934;12.050;2023-02-12T06:36:20;1.60;95.70
68480;DHT22;55469;48.934;12.050;2023-02-12T06:38:47;1.60;95.70
68480;DHT22;55469;48.934;12.050;2023-02-12T06:41:13;1.60;95.60
68480;DHT22;55469;48.934;12.050;2023-02-12T06:43:39;1.60;95.60
68480;DHT22;55469;48.934;12.050;2023-02-12T06:46:06;1.60;95.60
68480;DHT22;55469;48.934;12.050;2023-02-12T06:48:33;1.70;95.70
68480;DHT22;55469;48.934;12.050;2023-02-12T06:51:12;1.60;95.60
68480;DHT22;55469;48.934;12.050;2023-02-12T06:53:42;1.70;96.20
68480;DHT22;55469;48.934;12.050;2023-02-12T06:56:10;1.60;95.70
68480;DHT22;55469;48.934;12.050;2023-02-12T06:58:43;1.70;95.70
68480;DHT22;55469;48.934;12.050;2023-02-12T07:01:11;1.60;95.70
68480;DHT22;55469;48.934;12.050;2023-02-12T07:03:43;1.70;95.80
68480;DHT22;55469;48.934;12.050;2023-02-12T07:06:12;1.70;95.70
68480;DHT22;55469;48.934;12.050;2023-02-12T07:08:39;1.70;95.70
68480;DHT22;55469;48.934;12.050;2023-02-12T07:11:05;1.70;95.70
68480;DHT22;55469;48.934;12.050;2023-02-12T07:13:31;1.70;95.70
68480;DHT22;55469;48.934;12.050;2023-02-12T07:16:02;1.70;95.60
68480;DHT22;55469;48.934;12.050;2023-02-12T07:18:30;1.70;95.60
68480;DHT22;55469;48.934;12.050;2023-02-12T07:20:55;1.70;95.60
68480;DHT22;55469;48.934;12.050;2023-02-12T07:23:21;1.70;95.70
68480;DHT22;55469;48.934;12.050;2023-02-12T07:25:57;1.70;95.70
68480;DHT22;55469;48.934;12.050;2023-02-12T07:28:24;1.70;95.70
68480;DHT22;55469;48.934;12.050;2023-02-12T07:30:50;1.70;95.70
68480;DHT22;55469;48.934;12.050;2023-02-12T07:33:16;1.70;95.70
68480;DHT22;55469;48.934;12.050;2023-02-12T07:35:42;1.70;95.80
68480;DHT22;55469;48.934;12.050;2023-02-12T07:38:08;1.70;95.80
68480;DHT22;55469;48.934;12.050;2023-02-12T07:40:34;1.70;95.80
68480;DHT22;55469;48.934;12.050;2023-02-12T07:42:59;1.70;95.70
68480;DHT22;55469;48.934;12.050;2023-02-12T07:45:25;1.80;95.70
68480;DHT22;55469;48.934;12.050;2023-02-12T07:47:51;1.80;95.60
68480;DHT22;55469;48.934;12.050;2023-02-12T07:50:16;1.70;95.60
68480;DHT22;55469;48.934;12.050;2023-02-12T07:52:42;1.80;95.60
68480;DHT22;55469;48.934;12.050;2023-02-12T07:55:09;1.80;95.60
68480;DHT22;55469;48.934;12.050;2023-02-12T07:57:35;1.80;95.70
68480;DHT22;55469;48.934;12.050;2023-02-12T08:00:02;1.80;95.60
68480;DHT22;55469;48.934;12.050;2023-02-12T08:02:28;1.80;95.70
68480;DHT22;55469;48.934;12.050;2023-02-12T08:04:58;1.80;95.60
68480;DHT22;55469;48.934;12.050;2023-02-12T08:07:23;1.80;95.60
68480;DHT22;55469;48.934;12.050;2023-02-12T08:09:49;1.90;95.70
68480;DHT22;55469;48.934;12.050;2023-02-12T08:12:16;1.80;95.60
68480;DHT22;55469;48.934;12.050;2023-02-12T08:14:43;1.80;95.60
68480;DHT22;55469;48.934;12.050;2023-02-12T08:17:09;1.90;95.60
68480;DHT22;55469;48.934;12.050;2023-02-12T08:19:35;1.90;95.60
68480;DHT22;55469;48.934;12.050;2023-02-12T08:22:00;1.90;95.60
68480;DHT22;55469;48.934;12.050;2023-02-12T08:24:31;1.90;95.60
68480;DHT22;55469;48.934;12.050;2023-02-12T08:26:57;1.90;95.60
68480;DHT22;55469;48.934;12.050;2023-02-12T08:29:25;1.90;95.60
68480;DHT22;55469;48.934;12.050;2023-02-12T08:32:01;1.90;95.60
68480;DHT22;55469;48.934;12.050;2023-02-12T08:34:28;1.90;95.60
68480;DHT22;55469;48.934;12.050;2023-02-12T08:36:56;1.90;95.60
68480;DHT22;55469;48.934;12.050;2023-02-12T08:39:24;1.90;96.20
68480;DHT22;55469;48.934;12.050;2023-02-12T08:41:50;2.00;95.80
68480;DHT22;55469;48.934;12.050;2023-02-12T08:44:20;2.00;95.80
68480;DHT22;55469;48.934;12.050;2023-02-12T08:46:48;2.00;95.80
68480;DHT22;55469;48.934;12.050;2023-02-12T08:49:20;2.00;95.80
68480;DHT22;55469;48.934;12.050;2023-02-12T08:51:49;2.00;95.70
68480;DHT22;55469;48.934;12.050;2023-02-12T08:54:19;2.00;95.70
68480;DHT22;55469;48.934;12.050;2023-02-12T08:56:48;2.00;95.80
68480;DHT22;55469;48.934;12.050;2023-02-12T08:59:15;2.10;95.80
68480;DHT22;55469;48.934;12.050;2023-02-12T09:01:42;2.10;95.90
68480;DHT22;55469;48.934;12.050;2023-02-12T09:04:14;2.10;96.00
68480;DHT22;55469;48.934;12.050;2023-02-12T09:06:42;2.10;96.00
68480;DHT22;55469;48.934;12.050;2023-02-12T09:09:08;2.10;96.00
68480;DHT22;55469;48.934;12.050;2023-02-12T09:11:34;2.10;96.10
68480;DHT22;55469;48.934;12.050;2023-02-12T09:14:02;2.10;96.00
68480;DHT22;55469;48.934;12.050;2023-02-12T09:16:32;2.10;96.00
68480;DHT22;55469;48.934;12.050;2023-02-12T09:18:58;2.20;95.90
68480;DHT22;55469;48.934;12.050;2023-02-12T09:21:24;2.20;96.00
68480;DHT22;55469;48.934;12.050;2023-02-12T09:23:51;2.10;96.00
68480;DHT22;55469;48.934;12.050;2023-02-12T09:26:19;2.20;96.10
68480;DHT22;55469;48.934;12.050;2023-02-12T09:28:48;2.20;96.00
68480;DHT22;55469;48.934;12.050;2023-02-12T09:31:21;2.20;96.10
68480;DHT22;55469;48.934;12.050;2023-02-12T09:33:54;2.20;96.10
68480;DHT22;55469;48.934;12.050;2023-02-12T09:36:24;2.30;96.00
68480;DHT22;55469;48.934;12.050;2023-02-12T09:38:50;2.20;95.90
68480;DHT22;55469;48.934;12.050;2023-02-12T09:47:59;2.30;95.70
68480;DHT22;55469;48.934;12.050;2023-02-12T09:50:58;2.30;95.60
68480;DHT22;55469;48.934;12.050;2023-02-12T09:53:28;2.30;95.60
68480;DHT22;55469;48.934;12.050;2023-02-12T09:55:55;2.40;95.50
68480;DHT22;55469;48.934;12.050;2023-02-12T09:58:38;2.40;95.40
68480;DHT22;55469;48.934;12.050;2023-02-12T10:01:12;2.40;95.30
68480;DHT22;55469;48.934;12.050;2023-02-12T10:03:39;2.40;95.30
68480;DHT22;55469;48.934;12.050;2023-02-12T10:06:14;2.40;95.30
68480;DHT22;55469;48.934;12.050;2023-02-12T10:15:51;2.40;95.20
68480;DHT22;55469;48.934;12.050;2023-02-12T10:21:16;2.40;95.20
68480;DHT22;55469;48.934;12.050;2023-02-12T10:24:25;2.50;95.20
68480;DHT22;55469;48.934;12.050;2023-02-12T10:26:56;2.50;95.30
68480;DHT22;55469;48.934;12.050;2023-02-12T10:29:27;2.50;95.20
68480;DHT22;55469;48.934;12.050;2023-02-12T10:32:02;2.50;95.60
68480;DHT22;55469;48.934;12.050;2023-02-12T10:34:35;2.50;95.10
68480;DHT22;55469;48.934;12.050;2023-02-12T10:39:51;2.60;95.00
68480;DHT22;55469;48.934;12.050;2023-02-12T10:42:38;2.60;95.00
68480;DHT22;55469;48.934;12.050;2023-02-12T10:45:08;2.60;94.90
68480;DHT22;55469;48.934;12.050;2023-02-12T10:47:38;2.60;94.90
68480;DHT22;55469;48.934;12.050;2023-02-12T10:50:17;2.60;94.90
68480;DHT22;55469;48.934;12.050;2023-02-12T10:52:50;2.60;94.80
68480;DHT22;55469;48.934;12.050;2023-02-12T10:57:52;2.70;94.80
68480;DHT22;55469;48.934;12.050;2023-02-12T11:00:34;2.70;94.80
68480;DHT22;55469;48.934;12.050;2023-02-12T11:03:03;2.70;94.70
68480;DHT22;55469;48.934;12.050;2023-02-12T11:05:33;2.70;94.70
68480;DHT22;55469;48.934;12.050;2023-02-12T11:08:00;3.10;97.50
68480;DHT22;55469;48.934;12.050;2023-02-12T11:10:28;3.30;97.70
68480;DHT22;55469;48.934;12.050;2023-02-12T11:12:57;3.30;95.70
68480;DHT22;55469;48.934;12.050;2023-02-12T11:15:26;3.10;95.20
68480;DHT22;55469;48.934;12.050;2023-02-12T11:18:00;3.10;95.10
68480;DHT22;55469;48.934;12.050;2023-02-12T11:23:23;3.00;95.50
68480;DHT22;55469;48.934;12.050;2023-02-12T11:25:56;3.00;95.10
68480;DHT22;55469;48.934;12.050;2023-02-12T11:28:27;3.00;95.20
68480;DHT22;55469;48.934;12.050;2023-02-12T11:31:00;3.00;95.30
68480;DHT22;55469;48.934;12.050;2023-02-12T11:33:44;3.00;95.30
68480;DHT22;55469;48.934;12.050;2023-02-12T11:36:19;3.00;95.30
68480;DHT22;55469;48.934;12.050;2023-02-12T11:38:51;3.00;95.30
68480;DHT22;55469;48.934;12.050;2023-02-12T11:41:40;3.00;95.30
68480;DHT22;55469;48.934;12.050;2023-02-12T11:44:11;3.00;95.20
68480;DHT22;55469;48.934;12.050;2023-02-12T11:46:54;3.00;95.30
68480;DHT22;55469;48.934;12.050;2023-02-12T11:49:26;3.10;95.40
68480;DHT22;55469;48.934;12.050;2023-02-12T11:51:55;3.10;95.30
68480;DHT22;55469;48.934;12.050;2023-02-12T11:54:27;3.10;95.20
68480;DHT22;55469;48.934;12.050;2023-02-12T11:56:54;3.10;95.20
68480;DHT22;55469;48.934;12.050;2023-02-12T11:59:34;3.20;95.10
68480;DHT22;55469;48.934;12.050;2023-02-12T12:02:30;3.20;95.10
68480;DHT22;55469;48.934;12.050;2023-02-12T12:05:11;3.20;95.50
68480;DHT22;55469;48.934;12.050;2023-02-12T12:07:44;3.20;95.00
68480;DHT22;55469;48.934;12.050;2023-02-12T12:10:21;3.20;95.00
68480;DHT22;55469;48.934;12.050;2023-02-12T12:12:50;3.30;95.00
68480;DHT22;55469;48.934;12.050;2023-02-12T12:22:06;3.30;95.00
68480;DHT22;55469;48.934;12.050;2023-02-12T12:24:51;3.30;94.90
68480;DHT22;55469;48.934;12.050;2023-02-12T12:27:26;3.40;94.90
68480;DHT22;55469;48.934;12.050;2023-02-12T12:36:11;3.40;94.80
68480;DHT22;55469;48.934;12.050;2023-02-12T12:39:04;3.40;94.80
68480;DHT22;55469;48.934;12.050;2023-02-12T12:45:38;3.50;94.80
68480;DHT22;55469;48.934;12.050;2023-02-12T12:48:36;3.50;94.70
68480;DHT22;55469;48.934;12.050;2023-02-12T12:51:36;3.50;94.60
68480;DHT22;55469;48.934;12.050;2023-02-12T12:57:05;3.60;94.60
68480;DHT22;55469;48.934;12.050;2023-02-12T13:03:08;3.60;94.50
68480;DHT22;55469;48.934;12.050;2023-02-12T13:17:41;3.60;94.50
68480;DHT22;55469;48.934;12.050;2023-02-12T13:20:50;3.70;94.50
68480;DHT22;55469;48.934;12.050;2023-02-12T13:23:53;3.70;94.50
68480;DHT22;55469;48.934;12.050;2023-02-12T13:26:45;3.60;94.50
68480;DHT22;55469;48.934;12.050;2023-02-12T13:29:22;3.70;94.60
68480;DHT22;55469;48.934;12.050;2023-02-12T13:31:58;3.60;94.60
68480;DHT22;55469;48.934;12.050;2023-02-12T13:34:29;3.70;94.60
68480;DHT22;55469;48.934;12.050;2023-02-12T13:36:59;3.70;94.60
68480;DHT22;55469;48.934;12.050;2023-02-12T13:39:31;3.70;94.50
68480;DHT22;55469;48.934;12.050;2023-02-12T13:42:34;3.70;94.50
68480;DHT22;55469;48.934;12.050;2023-02-12T13:45:15;3.70;94.50
68480;DHT22;55469;48.934;12.050;2023-02-12T13:53:54;3.70;94.50
68480;DHT22;55469;48.934;12.050;2023-02-12T13:56:49;3.70;94.50
68480;DHT22;55469;48.934;12.050;2023-02-12T14:04:45;3.80;94.50
68480;DHT22;55469;48.934;12.050;2023-02-12T14:07:18;3.80;94.50
68480;DHT22;55469;48.934;12.050;2023-02-12T14:15:03;3.70;94.40
68480;DHT22;55469;48.934;12.050;2023-02-12T14:30:36;3.80;94.30
68480;DHT22;55469;48.934;12.050;2023-02-12T14:40:46;3.90;94.30
68480;DHT22;55469;48.934;12.050;2023-02-12T14:43:32;3.90;94.30
68480;DHT22;55469;48.934;12.050;2023-02-12T14:49:00;3.90;94.30
68480;DHT22;55469;48.934;12.050;2023-02-12T14:54:20;3.90;94.30
68480;DHT22;55469;48.934;12.050;2023-02-12T14:56:54;3.90;94.30
68480;DHT22;55469;48.934;12.050;2023-02-12T14:59:23;3.90;94.30
68480;DHT22;55469;48.934;12.050;2023-02-12T15:01:51;3.90;94.30
68480;DHT22;55469;48.934;12.050;2023-02-12T15:04:26;3.90;94.30
68480;DHT22;55469;48.934;12.050;2023-02-12T15:07:00;3.90;94.30
68480;DHT22;55469;48.934;12.050;2023-02-12T15:09:36;4.00;94.30
68480;DHT22;55469;48.934;12.050;2023-02-12T15:12:14;3.90;94.30
68480;DHT22;55469;48.934;12.050;2023-02-12T15:14:49;3.90;94.30
68480;DHT22;55469;48.934;12.050;2023-02-12T15:17:24;4.00;94.30
68480;DHT22;55469;48.934;12.050;2023-02-12T15:20:12;4.00;94.80
68480;DHT22;55469;48.934;12.050;2023-02-12T15:22:43;3.90;94.30
68480;DHT22;55469;48.934;12.050;2023-02-12T15:25:27;3.90;94.30
68480;DHT22;55469;48.934;12.050;2023-02-12T15:27:59;4.00;94.30
68480;DHT22;55469;48.934;12.050;2023-02-12T15:30:30;4.00;94.30
68480;DHT22;55469;48.934;12.050;2023-02-12T15:33:08;4.00;94.30
68480;DHT22;55469;48.934;12.050;2023-02-12T15:35:37;4.00;94.30
68480;DHT22;55469;48.934;12.050;2023-02-12T15:38:05;4.00;94.30
68480;DHT22;55469;48.934;12.050;2023-02-12T15:40:32;4.00;94.30
68480;DHT22;55469;48.934;12.050;2023-02-12T15:43:01;4.00;94.30
68480;DHT22;55469;48.934;12.050;2023-02-12T15:45:33;4.00;94.30
68480;DHT22;55469;48.934;12.050;2023-02-12T15:48:11;4.00;94.40
68480;DHT22;55469;48.934;12.050;2023-02-12T15:51:38;4.00;94.30
68480;DHT22;55469;48.934;12.050;2023-02-12T15:53:47;4.00;94.40
68480;DHT22;55469;48.934;12.050;2023-02-12T15:56:16;3.90;94.40
68480;DHT22;55469;48.934;12.050;2023-02-12T15:58:52;3.90;94.40
68480;DHT22;55469;48.934;12.050;2023-02-12T16:01:22;3.90;94.40
68480;DHT22;55469;48.934;12.050;2023-02-12T16:04:00;3.90;94.40
68480;DHT22;55469;48.934;12.050;2023-02-12T16:06:30;3.90;94.40
68480;DHT22;55469;48.934;12.050;2023-02-12T16:09:17;3.90;94.50
68480;DHT22;55469;48.934;12.050;2023-02-12T16:11:52;3.90;94.40
68480;DHT22;55469;48.934;12.050;2023-02-12T16:14:24;4.00;94.50
68480;DHT22;55469;48.934;12.050;2023-02-12T16:16:54;3.90;94.50
68480;DHT22;55469;48.934;12.050;2023-02-12T16:19:29;3.90;94.50
68480;DHT22;55469;48.934;12.050;2023-02-12T16:22:07;3.90;94.50
68480;DHT22;55469;48.934;12.050;2023-02-12T16:24:45;3.90;94.50
68480;DHT22;55469;48.934;12.050;2023-02-12T16:27:26;3.90;94.60
68480;DHT22;55469;48.934;12.050;2023-02-12T16:32:58;3.90;94.60
68480;DHT22;55469;48.934;12.050;2023-02-12T16:35:33;3.90;94.60
68480;DHT22;55469;48.934;12.050;2023-02-12T16:38:39;3.90;94.70
68480;DHT22;55469;48.934;12.050;2023-02-12T16:46:51;3.80;94.80
68480;DHT22;55469;48.934;12.050;2023-02-12T16:49:21;3.80;94.90
68480;DHT22;55469;48.934;12.050;2023-02-12T16:51:49;3.80;94.90
68480;DHT22;55469;48.934;12.050;2023-02-12T16:54:30;3.80;94.90
68480;DHT22;55469;48.934;12.050;2023-02-12T16:56:58;3.80;95.00
68480;DHT22;55469;48.934;12.050;2023-02-12T16:59:25;3.80;95.00
68480;DHT22;55469;48.934;12.050;2023-02-12T17:02:10;3.80;94.90
68480;DHT22;55469;48.934;12.050;2023-02-12T17:04:38;3.80;95.00
68480;DHT22;55469;48.934;12.050;2023-02-12T17:07:22;3.80;94.90
68480;DHT22;55469;48.934;12.050;2023-02-12T17:09:49;3.80;95.00
68480;DHT22;55469;48.934;12.050;2023-02-12T17:12:15;3.80;95.00
68480;DHT22;55469;48.934;12.050;2023-02-12T17:14:41;3.80;95.00
68480;DHT22;55469;48.934;12.050;2023-02-12T17:17:07;3.80;95.00
68480;DHT22;55469;48.934;12.050;2023-02-12T17:19:32;3.80;95.00
68480;DHT22;55469;48.934;12.050;2023-02-12T17:21:58;3.80;95.10
68480;DHT22;55469;48.934;12.050;2023-02-12T17:24:27;3.80;95.10
68480;DHT22;55469;48.934;12.050;2023-02-12T17:26:54;3.80;95.10
68480;DHT22;55469;48.934;12.050;2023-02-12T17:29:21;3.80;95.20
68480;DHT22;55469;48.934;12.050;2023-02-12T17:31:48;3.70;95.20
68480;DHT22;55469;48.934;12.050;2023-02-12T17:34:15;3.70;95.20
68480;DHT22;55469;48.934;12.050;2023-02-12T17:36:41;3.80;95.30
68480;DHT22;55469;48.934;12.050;2023-02-12T17:39:07;3.70;95.50
68480;DHT22;55469;48.934;12.050;2023-02-12T17:41:34;3.80;95.60
68480;DHT22;55469;48.934;12.050;2023-02-12T17:44:00;3.70;95.50
68480;DHT22;55469;48.934;12.050;2023-02-12T17:46:27;3.70;95.60
68480;DHT22;55469;48.934;12.050;2023-02-12T17:48:54;3.70;95.80
68480;DHT22;55469;48.934;12.050;2023-02-12T17:51:20;3.70;95.80
68480;DHT22;55469;48.934;12.050;2023-02-12T17:53:46;3.70;95.80
68480;DHT22;55469;48.934;12.050;2023-02-12T17:56:15;3.70;95.80
68480;DHT22;55469;48.934;12.050;2023-02-12T17:58:44;3.70;95.80
68480;DHT22;55469;48.934;12.050;2023-02-12T18:01:13;3.60;95.90
68480;DHT22;55469;48.934;12.050;2023-02-12T18:03:40;3.60;95.90
68480;DHT22;55469;48.934;12.050;2023-02-12T18:06:07;3.60;96.00
68480;DHT22;55469;48.934;12.050;2023-02-12T18:08:33;3.60;96.00
68480;DHT22;55469;48.934;12.050;2023-02-12T18:11:04;3.60;96.00
68480;DHT22;55469;48.934;12.050;2023-02-12T18:13:31;3.60;96.10
68480;DHT22;55469;48.934;12.050;2023-02-12T18:15:57;3.60;96.10
68480;DHT22;55469;48.934;12.050;2023-02-12T18:18:22;3.60;96.10
68480;DHT22;55469;48.934;12.050;2023-02-12T18:20:48;3.60;96.20
68480;DHT22;55469;48.934;12.050;2023-02-12T18:23:14;3.60;96.20
68480;DHT22;55469;48.934;12.050;2023-02-12T18:25:41;3.50;96.20
68480;DHT22;55469;48.934;12.050;2023-02-12T18:28:07;3.50;96.20
68480;DHT22;55469;48.934;12.050;2023-02-12T18:30:34;3.50;96.30
68480;DHT22;55469;48.934;12.050;2023-02-12T18:33:01;3.50;96.40
68480;DHT22;55469;48.934;12.050;2023-02-12T18:35:27;3.50;96.50
68480;DHT22;55469;48.934;12.050;2023-02-12T18:37:52;3.50;97.00